Terminal Aerodrome Forecast
Issued by NWS Green Bay, WI

Home | Current Version | Previous Version | Text Only | Print | Product List | Glossary On
Versions: 1 2 3 4 5 6 7 8 9 10 11 12 13 14 15 16 17 18 19 20 21 22 23 24 25 26 27 28 29 30 31 32 33 34 35 36 37 38
000
FTUS43 KGRB 031100
TAFGRB
TAF
KGRB 031120Z 0312/0412 16007G14KT P6SM SCT030 OVC070
      TEMPO 0312/0315 3SM -SN SCT015 BKN025
     FM031500 15010G16KT 2SM -SN OVC025
     FM031600 17008G16KT 3/4SM -SN OVC016
     FM031900 21009KT 2SM -SN BR SCT005 OVC010
     FM032000 24009KT 6SM -SN SCT015 OVC018
     FM032300 27010KT P6SM -SN SCT009 OVC025
     FM040200 28012G20KT P6SM SCT030 SCT100=

USA.gov is the U.S. government's official web portal to all federal, state and local government web resources and services.